Time;durP1;ratioP1;P1;durP2;ratioP2;P2;SDS_P1;SDS_P2;PMS_P1;PMS_P2;Temp;Humidity;BMP_temperature;BMP_pressure;BME280_temperature;BME280_humidity;BME280_pressure;Samples;Min_cycle;Max_cycle;Signal;HPM_P1;HPM_P2
2022/05/09 00:02:22;;;;;;;10.77;3.33;;;9.50;75.80;;;;;;5093095;28;20464;-68
2022/05/09 00:04:47;;;;;;;17.17;4.00;;;9.50;75.70;;;;;;5093116;28;20044;-68
2022/05/09 00:07:13;;;;;;;14.25;3.35;;;9.50;75.70;;;;;;5092905;28;20047;-68
2022/05/09 00:09:38;;;;;;;16.33;4.20;;;9.50;75.60;;;;;;5092793;28;20048;-68
2022/05/09 00:12:05;;;;;;;11.98;3.42;;;9.50;75.60;;;;;;5092382;28;20083;-68
2022/05/09 00:14:31;;;;;;;16.67;3.22;;;9.40;75.70;;;;;;5092761;28;20135;-68
2022/05/09 00:16:57;;;;;;;7.90;3.10;;;9.40;75.70;;;;;;5092730;28;20139;-67
2022/05/09 00:19:23;;;;;;;14.50;3.63;;;9.40;75.60;;;;;;5091754;28;20502;-67
2022/05/09 00:21:51;;;;;;;12.82;3.53;;;9.40;75.60;;;;;;5092225;28;20055;-67
2022/05/09 00:24:17;;;;;;;7.80;4.00;;;9.30;75.70;;;;;;5092494;28;20404;-69
2022/05/09 00:26:44;;;;;;;9.88;3.67;;;9.40;75.80;;;;;;5092291;28;20046;-68
2022/05/09 00:29:12;;;;;;;15.38;4.95;;;9.40;75.90;;;;;;5092437;28;20031;-68
2022/05/09 00:31:39;;;;;;;16.25;3.80;;;9.40;75.90;;;;;;5092316;28;20546;-67
2022/05/09 00:34:05;;;;;;;11.85;4.05;;;9.40;75.90;;;;;;5073914;28;20055;-68
2022/05/09 00:36:31;;;;;;;20.05;5.30;;;9.40;76.00;;;;;;5092053;28;20512;-67
2022/05/09 00:38:59;;;;;;;17.67;3.90;;;9.40;76.00;;;;;;5092209;28;20097;-67
2022/05/09 00:41:34;;;;;;;14.68;4.03;;;9.30;76.00;;;;;;5092085;28;20075;-68
2022/05/09 00:44:02;;;;;;;17.98;3.83;;;9.30;76.00;;;;;;5092314;28;20054;-68
2022/05/09 00:46:28;;;;;;;11.80;3.72;;;9.30;76.10;;;;;;5090935;28;20539;-68
2022/05/09 00:48:56;;;;;;;18.23;4.25;;;9.30;76.20;;;;;;5091961;28;20048;-68
2022/05/09 00:51:25;;;;;;;16.90;4.15;;;9.30;76.30;;;;;;5091770;28;20123;-68
2022/05/09 00:53:53;;;;;;;17.38;4.47;;;9.30;76.40;;;;;;5092235;28;20043;-68
2022/05/09 00:56:26;;;;;;;13.32;3.58;;;9.30;76.60;;;;;;5092062;28;20044;-68
2022/05/09 00:58:57;;;;;;;14.70;4.53;;;9.30;76.80;;;;;;5091636;28;20069;-68
2022/05/09 01:01:22;;;;;;;9.43;4.80;;;9.30;76.90;;;;;;5090470;28;20595;-68
2022/05/09 01:03:57;;;;;;;16.73;3.90;;;9.30;77.10;;;;;;5092176;28;20079;-68
2022/05/09 01:06:23;;;;;;;18.77;3.92;;;9.40;77.30;;;;;;5091823;28;20056;-69
2022/05/09 01:08:48;;;;;;;12.80;4.13;;;9.30;77.30;;;;;;5091726;28;20071;-68
2022/05/09 01:11:18;;;;;;;12.32;3.65;;;9.40;77.20;;;;;;5091647;28;20102;-68
2022/05/09 01:13:48;;;;;;;13.65;3.85;;;9.40;77.20;;;;;;5091364;28;20044;-68
2022/05/09 01:16:17;;;;;;;15.32;3.88;;;9.30;77.30;;;;;;5091575;28;20040;-68
2022/05/09 01:18:44;;;;;;;13.25;4.03;;;9.30;77.30;;;;;;5091477;28;20060;-68
2022/05/09 01:21:33;;;;;;;15.07;4.30;;;9.30;77.30;;;;;;5091336;28;20054;-68
2022/05/09 01:24:00;;;;;;;16.33;4.68;;;9.30;77.30;;;;;;5090095;28;20052;-68
2022/05/09 01:26:26;;;;;;;15.63;3.95;;;9.30;77.50;;;;;;5091482;28;20493;-68
2022/05/09 01:28:53;;;;;;;18.60;4.18;;;9.30;77.60;;;;;;5090066;28;20036;-69
2022/05/09 01:31:19;;;;;;;17.88;3.85;;;9.30;77.70;;;;;;5090415;28;20100;-68
2022/05/09 01:33:50;;;;;;;18.70;3.55;;;9.20;77.60;;;;;;5091397;28;20504;-68
2022/05/09 01:36:24;;;;;;;17.25;4.28;;;9.30;77.60;;;;;;5091425;28;20048;-68
2022/05/09 01:38:56;;;;;;;23.05;5.88;;;9.30;77.50;;;;;;5091048;28;20105;-68
2022/05/09 01:41:23;;;;;;;16.08;3.67;;;9.30;77.50;;;;;;5091223;28;20051;-68
2022/05/09 01:43:51;;;;;;;11.90;3.28;;;9.20;77.50;;;;;;5091287;28;20075;-68
2022/05/09 01:46:23;;;;;;;20.55;4.25;;;9.20;77.40;;;;;;5091088;28;20052;-68
2022/05/09 01:51:33;;;;;;;13.20;3.67;;;9.20;77.50;;;;;;5090594;28;20074;-68
2022/05/09 01:53:59;;;;;;;17.63;3.67;;;9.20;77.60;;;;;;5091020;28;20047;-67
2022/05/09 01:56:36;;;;;;;14.30;3.25;;;9.20;77.60;;;;;;5091028;28;20036;-67
2022/05/09 01:59:03;;;;;;;21.20;5.03;;;9.20;77.60;;;;;;5089536;28;20056;-68
2022/05/09 02:01:35;;;;;;;19.58;3.30;;;9.10;77.60;;;;;;5090912;28;20075;-68
2022/05/09 02:04:00;;;;;;;13.68;3.90;;;9.20;77.70;;;;;;5073020;28;20052;-68
2022/05/09 02:06:26;;;;;;;18.55;4.13;;;9.10;77.60;;;;;;5090293;28;20059;-68
2022/05/09 02:08:52;;;;;;;17.48;3.58;;;9.10;77.80;;;;;;5089408;28;20044;-68
2022/05/09 02:11:17;;;;;;;22.17;5.07;;;9.10;77.80;;;;;;5090791;28;20087;-68
2022/05/09 02:13:43;;;;;;;12.80;4.03;;;9.20;77.80;;;;;;5090595;28;20059;-68
2022/05/09 02:16:10;;;;;;;10.23;3.10;;;9.10;77.90;;;;;;5090742;28;20036;-68
2022/05/09 02:18:36;;;;;;;17.38;4.47;;;9.10;78.00;;;;;;5090134;28;20488;-68
2022/05/09 02:21:02;;;;;;;12.23;3.15;;;9.10;78.10;;;;;;5090512;28;20048;-69
2022/05/09 02:23:28;;;;;;;17.33;4.45;;;9.10;78.10;;;;;;5090361;28;20044;-69
2022/05/09 02:25:54;;;;;;;17.98;4.35;;;9.10;78.00;;;;;;5089588;28;20054;-68
2022/05/09 02:28:21;;;;;;;12.38;3.97;;;9.10;78.10;;;;;;5089514;28;20097;-69
2022/05/09 02:30:47;;;;;;;12.95;3.13;;;9.10;78.10;;;;;;5089333;28;20638;-69
2022/05/09 02:33:13;;;;;;;15.57;3.78;;;9.10;78.10;;;;;;5089135;28;20083;-68
2022/05/09 02:35:39;;;;;;;16.77;4.10;;;9.10;78.10;;;;;;5088377;28;20426;-68
2022/05/09 02:38:05;;;;;;;13.80;4.22;;;9.10;78.00;;;;;;5089112;28;20496;-68
2022/05/09 02:40:33;;;;;;;14.55;3.63;;;9.10;78.10;;;;;;5089450;28;20126;-69
2022/05/09 02:42:59;;;;;;;15.38;3.92;;;9.10;78.10;;;;;;5090969;28;20082;-69
2022/05/09 02:45:26;;;;;;;17.08;4.15;;;9.00;78.10;;;;;;5093267;28;20044;-68
2022/05/09 02:47:53;;;;;;;14.80;3.63;;;9.00;78.10;;;;;;5093238;28;20059;-68
2022/05/09 02:50:21;;;;;;;15.77;3.60;;;9.00;78.10;;;;;;5093339;28;20044;-69
2022/05/09 02:52:47;;;;;;;17.83;4.25;;;9.00;78.20;;;;;;5093470;28;20044;-69
2022/05/09 02:55:13;;;;;;;13.55;3.70;;;9.00;78.30;;;;;;5093345;28;20565;-68
2022/05/09 02:57:39;;;;;;;14.38;4.20;;;9.00;78.30;;;;;;5093120;28;20135;-68
2022/05/09 03:00:11;;;;;;;15.55;3.80;;;8.90;78.30;;;;;;5092927;28;20119;-69
2022/05/09 03:02:36;;;;;;;14.38;3.95;;;9.00;78.30;;;;;;5093179;28;20051;-68
2022/05/09 03:05:02;;;;;;;13.27;4.22;;;8.90;78.30;;;;;;5093113;28;20044;-68
2022/05/09 03:07:28;;;;;;;21.25;5.07;;;8.90;78.30;;;;;;5093250;28;20442;-67
2022/05/09 03:09:54;;;;;;;13.85;4.22;;;8.90;78.30;;;;;;5092522;28;20101;-68
2022/05/09 03:12:19;;;;;;;22.50;5.75;;;8.80;78.40;;;;;;5093047;28;20551;-67
2022/05/09 03:14:46;;;;;;;21.58;5.28;;;8.80;78.40;;;;;;5092993;28;20119;-67
2022/05/09 03:17:12;;;;;;;18.90;4.20;;;8.80;78.40;;;;;;5092874;28;20500;-67
2022/05/09 03:19:38;;;;;;;14.00;3.92;;;8.80;78.50;;;;;;5092351;28;20143;-68
2022/05/09 03:22:04;;;;;;;15.10;3.67;;;8.80;78.50;;;;;;5092974;28;20870;-68
2022/05/09 03:24:30;;;;;;;23.30;4.95;;;8.70;78.50;;;;;;5092843;28;20036;-68
2022/05/09 03:26:56;;;;;;;11.52;3.63;;;8.70;78.60;;;;;;5092768;28;20044;-68
2022/05/09 03:29:24;;;;;;;18.50;4.20;;;8.70;78.70;;;;;;5092615;28;20440;-68
2022/05/09 03:31:52;;;;;;;13.95;4.43;;;8.60;78.80;;;;;;5092446;28;20043;-68
2022/05/09 03:34:18;;;;;;;19.92;5.05;;;8.60;78.80;;;;;;5092604;28;20048;-68
2022/05/09 03:36:44;;;;;;;17.17;4.05;;;8.70;78.80;;;;;;5092574;28;20504;-68
2022/05/09 03:39:10;;;;;;;13.18;4.05;;;8.60;78.90;;;;;;5092277;28;20051;-68
2022/05/09 03:41:36;;;;;;;18.40;4.85;;;8.60;78.80;;;;;;5092128;28;20404;-68
2022/05/09 03:44:02;;;;;;;16.45;4.82;;;8.60;78.80;;;;;;5092287;28;20055;-68
2022/05/09 03:46:28;;;;;;;16.10;4.50;;;8.60;78.80;;;;;;5092206;28;20048;-67
2022/05/09 03:48:53;;;;;;;12.32;4.47;;;8.60;78.80;;;;;;5092452;28;20040;-68
2022/05/09 03:51:19;;;;;;;18.88;4.72;;;8.60;78.80;;;;;;5092269;28;20159;-68
2022/05/09 03:53:45;;;;;;;16.92;4.93;;;8.60;78.80;;;;;;5091697;28;20052;-68
2022/05/09 03:56:12;;;;;;;17.45;4.57;;;8.60;78.80;;;;;;5091738;28;20032;-68
2022/05/09 03:58:38;;;;;;;13.05;4.65;;;8.60;78.90;;;;;;5091291;28;20052;-68
2022/05/09 04:01:04;;;;;;;17.45;4.03;;;8.50;78.80;;;;;;5090600;28;20047;-67
2022/05/09 04:03:31;;;;;;;14.48;4.60;;;8.50;78.90;;;;;;5091934;28;20048;-68
2022/05/09 04:05:59;;;;;;;13.88;4.13;;;8.50;78.90;;;;;;5091820;28;20044;-67
2022/05/09 04:08:25;;;;;;;11.70;4.43;;;8.40;78.90;;;;;;5091651;28;20841;-68
2022/05/09 04:10:53;;;;;;;22.27;5.68;;;8.50;78.90;;;;;;5091430;28;20056;-68
2022/05/09 04:13:18;;;;;;;16.30;4.40;;;8.40;78.90;;;;;;5091561;28;20054;-68
2022/05/09 04:18:35;;;;;;;12.13;4.32;;;8.40;78.90;;;;;;5091647;28;20091;-68
2022/05/09 04:21:01;;;;;;;13.27;6.55;;;8.40;78.90;;;;;;5091472;28;20095;-67
2022/05/09 04:23:26;;;;;;;8.40;4.65;;;8.40;78.90;;;;;;5089910;28;20076;-68
2022/05/09 04:25:52;;;;;;;15.45;4.60;;;8.30;78.90;;;;;;5091556;28;20055;-68
2022/05/09 04:28:19;;;;;;;11.35;4.32;;;8.40;78.90;;;;;;5091542;28;20044;-68
2022/05/09 04:30:45;;;;;;;17.00;4.82;;;8.40;79.00;;;;;;5091588;28;20131;-68
2022/05/09 04:33:11;;;;;;;24.52;5.90;;;8.40;79.10;;;;;;5091179;28;20051;-68
2022/05/09 04:35:39;;;;;;;14.52;3.90;;;8.40;79.00;;;;;;5091088;28;20417;-68
2022/05/09 04:38:05;;;;;;;18.52;5.18;;;8.40;79.00;;;;;;5091296;28;20044;-68
2022/05/09 04:40:35;;;;;;;17.08;5.80;;;8.40;79.10;;;;;;5091160;28;20048;-68
2022/05/09 04:43:01;;;;;;;20.25;4.90;;;8.40;79.20;;;;;;5090885;28;20056;-68
2022/05/09 04:45:28;;;;;;;21.85;4.65;;;8.40;79.20;;;;;;5091127;28;20044;-68
2022/05/09 04:47:54;;;;;;;13.98;4.78;;;8.50;79.20;;;;;;5091087;28;20044;-68
2022/05/09 04:50:22;;;;;;;19.48;5.68;;;8.50;79.30;;;;;;5090738;28;20404;-68
2022/05/09 04:52:48;;;;;;;15.15;4.82;;;8.50;79.30;;;;;;5091328;28;20040;-67
2022/05/09 04:55:15;;;;;;;12.10;4.30;;;8.50;79.40;;;;;;5091714;28;20044;-67
2022/05/09 04:57:42;;;;;;;19.15;5.60;;;8.60;79.40;;;;;;5091597;28;20054;-68
2022/05/09 05:00:14;;;;;;;12.52;4.80;;;8.50;79.30;;;;;;5091409;28;20490;-68
2022/05/09 05:02:40;;;;;;;12.90;4.70;;;8.60;79.40;;;;;;5090553;28;20036;-69
2022/05/09 05:05:07;;;;;;;21.48;8.05;;;8.60;79.40;;;;;;5090517;28;20048;-68
2022/05/09 05:07:33;;;;;;;15.82;5.50;;;8.60;79.50;;;;;;5090614;28;20048;-68
2022/05/09 05:09:58;;;;;;;10.13;4.63;;;8.60;79.50;;;;;;5090261;28;20067;-67
2022/05/09 05:12:24;;;;;;;17.13;5.85;;;8.60;79.50;;;;;;5090468;28;20051;-68
2022/05/09 05:14:50;;;;;;;21.10;5.70;;;8.70;79.50;;;;;;5090748;28;20044;-67
2022/05/09 05:17:16;;;;;;;11.80;5.88;;;8.70;79.50;;;;;;5090504;28;20047;-68
2022/05/09 05:19:44;;;;;;;15.38;5.45;;;8.70;79.50;;;;;;5090060;28;20121;-68
2022/05/09 05:22:15;;;;;;;15.88;5.72;;;8.80;79.50;;;;;;5090317;28;20424;-68
2022/05/09 05:24:44;;;;;;;11.35;5.35;;;8.80;79.50;;;;;;5090454;28;20040;-67
2022/05/09 05:27:11;;;;;;;12.98;4.68;;;8.80;79.50;;;;;;5088757;28;20051;-67
2022/05/09 05:29:37;;;;;;;20.48;5.50;;;8.90;79.50;;;;;;5090337;28;20040;-68
2022/05/09 05:32:19;;;;;;;19.38;5.38;;;8.90;79.50;;;;;;5090197;28;20048;-68
2022/05/09 05:34:45;;;;;;;13.50;4.27;;;9.00;79.50;;;;;;5089986;28;20076;-67
2022/05/09 05:37:10;;;;;;;24.70;6.63;;;8.90;79.50;;;;;;5090117;28;20749;-68
2022/05/09 05:39:37;;;;;;;11.63;4.47;;;9.00;79.50;;;;;;5089837;28;20044;-67
2022/05/09 05:42:07;;;;;;;16.48;5.53;;;9.10;79.50;;;;;;5090032;28;20047;-67
2022/05/09 05:44:34;;;;;;;18.05;5.40;;;9.10;79.50;;;;;;5088941;28;20044;-68
2022/05/09 05:47:04;;;;;;;23.52;6.40;;;9.10;79.40;;;;;;5089898;28;20047;-67
2022/05/09 05:49:30;;;;;;;10.55;5.05;;;9.20;79.40;;;;;;5089763;28;20040;-67
2022/05/09 05:51:59;;;;;;;23.17;8.65;;;9.20;79.30;;;;;;5089893;28;20109;-68
2022/05/09 05:54:24;;;;;;;17.17;5.72;;;9.20;79.20;;;;;;5089976;28;20050;-67
2022/05/09 05:56:50;;;;;;;13.90;4.68;;;9.30;79.20;;;;;;5090043;28;20910;-67
2022/05/09 05:59:15;;;;;;;12.23;5.53;;;9.40;79.10;;;;;;5089694;28;20052;-67
2022/05/09 06:01:41;;;;;;;19.65;5.47;;;9.40;79.00;;;;;;5089592;28;20051;-68
2022/05/09 06:04:06;;;;;;;11.18;4.78;;;9.40;79.10;;;;;;5089462;28;20113;-68
2022/05/09 06:06:32;;;;;;;17.88;5.65;;;9.40;79.10;;;;;;5089921;28;20044;-68
2022/05/09 06:08:57;;;;;;;16.08;5.20;;;9.50;79.10;;;;;;5089610;28;20056;-68
2022/05/09 06:11:23;;;;;;;17.15;6.63;;;9.60;79.00;;;;;;5089313;28;20075;-67
2022/05/09 06:13:48;;;;;;;15.23;5.43;;;9.60;79.00;;;;;;5089694;28;20036;-67
2022/05/09 06:16:14;;;;;;;20.38;6.13;;;9.60;78.90;;;;;;5089477;28;20036;-68
2022/05/09 06:18:40;;;;;;;17.92;5.82;;;9.70;79.00;;;;;;5087817;28;20044;-68
2022/05/09 06:21:05;;;;;;;16.08;5.60;;;9.70;79.20;;;;;;5089374;28;20075;-68
2022/05/09 06:23:31;;;;;;;13.23;5.75;;;9.70;79.20;;;;;;5089598;28;20135;-68
2022/05/09 06:25:56;;;;;;;23.85;6.18;;;9.80;79.30;;;;;;5089398;28;20044;-68
2022/05/09 06:28:23;;;;;;;20.27;5.95;;;9.90;79.20;;;;;;5089216;28;20541;-68
2022/05/09 06:30:49;;;;;;;15.13;5.13;;;9.90;79.40;;;;;;5089667;28;20054;-68
2022/05/09 06:33:23;;;;;;;12.25;5.90;;;10.00;79.50;;;;;;5089267;28;20127;-68
2022/05/09 06:35:50;;;;;;;16.13;5.75;;;10.10;79.50;;;;;;5089183;28;20044;-68
2022/05/09 06:38:17;;;;;;;18.50;5.13;;;10.20;79.40;;;;;;5089406;28;20097;-67
2022/05/09 06:40:43;;;;;;;20.27;5.70;;;10.20;79.40;;;;;;5089138;28;20146;-68
2022/05/09 06:43:09;;;;;;;23.92;5.78;;;10.30;79.40;;;;;;5089380;28;20071;-68
2022/05/09 06:45:35;;;;;;;16.88;6.32;;;10.50;79.40;;;;;;5089363;28;20071;-68
2022/05/09 06:48:01;;;;;;;28.83;5.45;;;10.60;79.20;;;;;;5087700;28;20040;-69
2022/05/09 06:50:30;;;;;;;18.23;5.90;;;10.60;79.20;;;;;;5089306;28;20079;-68
2022/05/09 06:52:57;;;;;;;18.92;5.75;;;10.70;79.20;;;;;;5089411;28;20076;-69
2022/05/09 06:55:23;;;;;;;20.98;5.70;;;10.80;79.10;;;;;;5088962;28;20040;-68
2022/05/09 06:57:52;;;;;;;17.83;5.95;;;10.90;79.00;;;;;;5088862;28;20101;-68
2022/05/09 07:00:21;;;;;;;14.60;5.60;;;11.00;78.90;;;;;;5089070;28;20063;-69
2022/05/09 07:02:47;;;;;;;16.85;5.25;;;11.10;78.80;;;;;;5087681;28;20509;-69
2022/05/09 07:05:17;;;;;;;16.02;6.30;;;11.20;78.70;;;;;;5088848;28;20040;-69
2022/05/09 07:07:44;;;;;;;18.10;6.65;;;11.30;78.70;;;;;;5089284;28;20048;-68
2022/05/09 07:10:12;;;;;;;25.77;5.90;;;11.30;78.50;;;;;;5087849;28;20109;-68
2022/05/09 07:12:49;;;;;;;16.30;5.55;;;11.40;78.40;;;;;;5089106;28;20450;-68
2022/05/09 07:15:29;;;;;;;14.85;5.30;;;11.60;78.30;;;;;;5088195;28;20047;-68
2022/05/09 07:17:55;;;;;;;20.10;5.22;;;11.60;78.20;;;;;;5088588;28;20036;-68
2022/05/09 07:20:25;;;;;;;18.00;4.90;;;11.70;78.10;;;;;;5088947;28;20044;-69
2022/05/09 07:22:52;;;;;;;17.65;5.32;;;11.80;78.00;;;;;;5087591;28;20546;-69
2022/05/09 07:25:19;;;;;;;12.32;3.15;;;11.90;77.80;;;;;;5088722;28;20511;-68
2022/05/09 07:27:44;;;;;;;15.27;4.38;;;12.00;77.60;;;;;;5088799;28;20036;-68
2022/05/09 07:30:17;;;;;;;20.27;5.40;;;12.50;77.30;;;;;;5090384;28;20085;-67
2022/05/09 07:32:43;;;;;;;13.73;4.65;;;12.70;76.20;;;;;;5092512;28;20044;-68
2022/05/09 07:35:11;;;;;;;18.00;5.20;;;12.70;75.50;;;;;;5092381;28;20043;-68
2022/05/09 07:37:38;;;;;;;14.32;4.60;;;12.80;75.20;;;;;;5092556;28;20450;-68
2022/05/09 07:40:05;;;;;;;12.35;5.43;;;12.70;74.80;;;;;;5092064;28;20087;-68
2022/05/09 07:42:31;;;;;;;22.63;5.13;;;12.80;74.80;;;;;;5092457;28;20051;-68
2022/05/09 07:44:57;;;;;;;9.43;4.40;;;12.80;74.90;;;;;;5092158;28;20047;-68
2022/05/09 07:47:25;;;;;;;21.48;6.40;;;12.90;74.80;;;;;;5092309;28;20078;-69
2022/05/09 07:49:51;;;;;;;21.90;5.65;;;13.00;74.80;;;;;;5092412;28;20047;-68
2022/05/09 07:52:16;;;;;;;26.15;5.47;;;13.00;74.60;;;;;;5091830;28;20051;-68
2022/05/09 07:54:43;;;;;;;17.92;6.25;;;13.10;74.50;;;;;;5090795;28;20441;-68
2022/05/09 07:57:09;;;;;;;14.60;4.90;;;13.10;74.30;;;;;;5092111;28;20046;-68
2022/05/09 07:59:35;;;;;;;19.35;4.72;;;13.20;74.40;;;;;;5091739;28;20048;-67
2022/05/09 08:02:01;;;;;;;22.63;5.57;;;13.20;74.30;;;;;;5092026;28;20473;-68
2022/05/09 08:04:26;;;;;;;18.52;5.93;;;13.30;74.30;;;;;;5091865;28;20539;-68
2022/05/09 08:06:52;;;;;;;16.65;5.30;;;13.40;74.20;;;;;;5091711;28;20044;-68
2022/05/09 08:09:18;;;;;;;20.88;5.68;;;13.50;74.10;;;;;;5091592;28;20060;-68
2022/05/09 08:11:44;;;;;;;12.48;4.00;;;13.50;73.60;;;;;;5091766;28;20439;-68
2022/05/09 08:14:11;;;;;;;15.98;4.38;;;13.60;73.40;;;;;;5091999;28;20036;-68
2022/05/09 08:16:38;;;;;;;14.05;4.20;;;13.60;73.20;;;;;;5091388;28;20040;-68
2022/05/09 08:19:04;;;;;;;18.77;4.45;;;13.70;73.00;;;;;;5091418;28;20048;-68
2022/05/09 08:21:30;;;;;;;15.55;4.07;;;13.80;72.70;;;;;;5090362;28;20480;-68
2022/05/09 08:23:56;;;;;;;13.40;3.90;;;13.80;72.40;;;;;;5091570;28;20040;-68
2022/05/09 08:26:23;;;;;;;15.82;3.70;;;13.90;71.90;;;;;;5091593;28;20051;-68
2022/05/09 08:28:49;;;;;;;14.20;4.88;;;14.00;71.60;;;;;;5091379;28;20093;-68
2022/05/09 08:31:18;;;;;;;11.73;4.82;;;14.10;71.50;;;;;;5091409;28;20054;-68
2022/05/09 08:33:49;;;;;;;17.75;3.83;;;14.20;71.30;;;;;;5091270;28;20048;-68
2022/05/09 08:36:45;;;;;;;14.50;3.67;;;14.30;70.90;;;;;;5091298;28;20055;-68
2022/05/09 08:39:01;;;;;;;22.92;5.47;;;14.40;70.70;;;;;;5091073;28;20139;-68
2022/05/09 08:41:34;;;;;;;16.38;3.92;;;14.50;70.60;;;;;;5090704;28;20044;-67
2022/05/09 08:44:22;;;;;;;12.85;3.50;;;14.60;70.60;;;;;;5090672;28;20618;-67
2022/05/09 08:47:09;;;;;;;11.80;3.58;;;14.60;69.90;;;;;;5091221;28;20040;-67
2022/05/09 08:50:07;;;;;;;12.73;3.70;;;14.70;70.10;;;;;;5089939;28;20816;-66
2022/05/09 08:52:45;;;;;;;17.10;4.38;;;14.80;69.20;;;;;;5090940;28;20386;-67
2022/05/09 08:55:13;;;;;;;10.48;3.20;;;14.90;69.20;;;;;;5090786;28;20130;-67
2022/05/09 08:57:54;;;;;;;14.13;3.33;;;15.00;68.60;;;;;;5090686;28;20086;-67
2022/05/09 09:00:21;;;;;;;10.23;3.10;;;15.10;67.50;;;;;;5090743;28;20362;-66
2022/05/09 09:02:56;;;;;;;18.15;3.38;;;15.20;67.40;;;;;;5090773;28;20432;-68
2022/05/09 09:05:24;;;;;;;10.88;3.17;;;15.30;66.80;;;;;;5090324;28;20055;-69
2022/05/09 09:07:57;;;;;;;16.52;3.40;;;15.40;66.60;;;;;;5089512;28;20515;-69
2022/05/09 09:10:30;;;;;;;13.63;3.17;;;15.60;65.20;;;;;;5090719;28;20814;-69
2022/05/09 09:13:22;;;;;;;9.60;2.45;;;15.60;64.30;;;;;;5090807;28;20579;-69
2022/05/09 09:16:18;;;;;;;8.73;2.60;;;15.60;63.90;;;;;;5090619;28;20123;-69
2022/05/09 09:19:07;;;;;;;12.60;3.33;;;15.80;62.70;;;;;;5090210;28;20462;-68
2022/05/09 09:21:36;;;;;;;10.52;3.22;;;15.90;61.90;;;;;;5091829;28;20177;-69
2022/05/09 09:24:22;;;;;;;16.25;3.72;;;16.00;62.30;;;;;;5090590;28;20056;-69
2022/05/09 09:27:24;;;;;;;15.65;2.85;;;16.10;61.40;;;;;;5090481;28;20083;-69
2022/05/09 09:29:56;;;;;;;18.13;2.92;;;16.20;60.80;;;;;;5090228;28;20055;-69
2022/05/09 09:32:23;;;;;;;11.43;2.78;;;16.30;60.40;;;;;;5090088;28;20058;-68
2022/05/09 09:34:59;;;;;;;10.30;2.60;;;16.30;60.10;;;;;;5091169;28;20044;-68
2022/05/09 09:37:43;;;;;;;11.20;2.13;;;16.50;59.50;;;;;;5091331;28;20047;-68
2022/05/09 09:40:09;;;;;;;12.43;2.97;;;16.60;59.80;;;;;;5091089;28;20139;-67
2022/05/09 09:42:35;;;;;;;8.80;2.38;;;16.60;58.40;;;;;;5091087;28;20072;-68
2022/05/09 09:45:13;;;;;;;14.70;4.25;;;16.70;55.60;;;;;;5090818;28;20109;-68
2022/05/09 09:47:39;;;;;;;11.02;3.08;;;16.80;56.50;;;;;;5090963;28;20043;-68
2022/05/09 09:50:25;;;;;;;10.27;2.15;;;16.90;57.20;;;;;;5090989;28;20040;-68
2022/05/09 09:52:54;;;;;;;10.88;2.10;;;17.00;55.60;;;;;;5089095;28;20442;-68
2022/05/09 09:55:24;;;;;;;13.52;2.47;;;17.00;55.50;;;;;;5090893;28;20052;-68
2022/05/09 09:57:49;;;;;;;16.55;2.90;;;17.10;55.20;;;;;;5090489;28;20075;-68
2022/05/09 10:00:19;;;;;;;8.52;2.08;;;17.20;54.10;;;;;;5090678;28;20121;-68
2022/05/09 10:02:45;;;;;;;11.20;2.55;;;17.20;52.90;;;;;;5090746;28;20075;-68
2022/05/09 10:05:13;;;;;;;14.88;2.55;;;17.30;53.20;;;;;;5090684;28;20124;-68
2022/05/09 10:07:44;;;;;;;10.68;2.45;;;17.40;52.90;;;;;;5090651;28;20494;-68
2022/05/09 10:10:13;;;;;;;15.38;3.00;;;17.50;52.20;;;;;;5090104;28;20066;-68
2022/05/09 10:12:44;;;;;;;13.90;2.55;;;17.60;52.00;;;;;;5090564;28;20048;-68
2022/05/09 10:15:34;;;;;;;13.73;2.72;;;17.70;51.80;;;;;;5090664;28;20047;-68
2022/05/09 10:18:21;;;;;;;7.30;2.30;;;17.80;49.20;;;;;;5089504;28;20044;-68
2022/05/09 10:20:51;;;;;;;14.23;2.92;;;17.90;49.20;;;;;;5088973;28;20086;-68
2022/05/09 10:26:17;;;;;;;9.75;2.20;;;17.90;48.50;;;;;;5089215;28;20043;-69
2022/05/09 10:28:49;;;;;;;10.43;2.08;;;18.00;49.90;;;;;;5087957;28;20437;-69
2022/05/09 10:31:29;;;;;;;13.85;2.28;;;18.10;50.20;;;;;;5089305;28;20039;-69
2022/05/09 10:34:05;;;;;;;8.05;2.45;;;18.20;49.80;;;;;;5089632;28;20040;-69
2022/05/09 10:36:46;;;;;;;10.65;3.63;;;18.20;49.30;;;;;;5071079;28;20123;-68
2022/05/09 10:39:26;;;;;;;17.02;2.85;;;18.20;46.80;;;;;;5089122;28;20493;-69
2022/05/09 10:42:10;;;;;;;9.43;2.53;;;18.40;48.30;;;;;;5089419;28;20044;-68
2022/05/09 10:44:57;;;;;;;9.77;2.08;;;18.50;48.00;;;;;;5089291;28;20089;-69
2022/05/09 10:47:54;;;;;;;14.70;4.13;;;18.60;48.20;;;;;;5088960;28;20052;-67
2022/05/09 10:50:49;;;;;;;8.98;2.33;;;18.60;46.40;;;;;;5089053;28;20489;-68
2022/05/09 10:53:46;;;;;;;8.43;2.53;;;18.70;45.90;;;;;;5088551;28;20091;-68
2022/05/09 10:56:18;;;;;;;14.98;2.65;;;18.70;47.00;;;;;;5089132;28;20093;-67
2022/05/09 10:58:57;;;;;;;15.35;2.53;;;18.70;46.70;;;;;;5088744;28;20052;-68
2022/05/09 11:01:41;;;;;;;12.15;3.53;;;18.80;47.00;;;;;;5088879;28;20044;-68
2022/05/09 11:04:08;;;;;;;12.00;2.88;;;18.90;46.30;;;;;;5090924;28;20044;-68
2022/05/09 11:06:56;;;;;;;7.30;2.35;;;18.90;46.10;;;;;;5093252;28;20044;-68
2022/05/09 11:09:51;;;;;;;12.68;2.67;;;19.10;46.10;;;;;;5092768;28;20455;-67
2022/05/09 11:12:28;;;;;;;10.48;2.20;;;19.10;45.90;;;;;;5092731;28;20059;-67
2022/05/09 11:15:20;;;;;;;11.73;2.33;;;19.20;46.00;;;;;;5093056;28;20047;-68
2022/05/09 11:18:19;;;;;;;9.88;2.67;;;19.30;45.60;;;;;;5092882;28;20051;-67
2022/05/09 11:21:10;;;;;;;9.98;2.35;;;19.30;44.30;;;;;;5092765;28;20048;-67
2022/05/09 11:23:57;;;;;;;7.20;2.22;;;19.40;45.10;;;;;;5092627;28;20047;-67
2022/05/09 11:26:48;;;;;;;15.93;3.15;;;19.40;44.40;;;;;;5092689;28;20044;-67
2022/05/09 11:29:39;;;;;;;10.32;2.55;;;19.40;43.20;;;;;;5092668;28;20084;-67
2022/05/09 11:32:19;;;;;;;10.20;2.13;;;19.50;43.90;;;;;;5092168;28;20042;-67
2022/05/09 11:35:03;;;;;;;12.82;2.90;;;19.60;44.30;;;;;;5092403;28;20093;-68
2022/05/09 11:37:39;;;;;;;13.10;3.13;;;19.60;44.20;;;;;;5092595;28;20934;-68
2022/05/09 11:40:27;;;;;;;9.02;2.00;;;19.70;43.10;;;;;;5092060;28;20048;-67
2022/05/09 11:46:18;;;;;;;6.60;1.90;;;19.80;42.80;;;;;;5092368;28;20076;-67
2022/05/09 11:49:15;;;;;;;8.68;2.75;;;20.00;41.60;;;;;;5092250;28;20113;-67
2022/05/09 11:51:44;;;;;;;13.07;4.00;;;20.10;42.20;;;;;;5092061;28;20044;-68
2022/05/09 11:54:25;;;;;;;13.38;2.38;;;20.10;42.20;;;;;;5092241;28;21049;-68
2022/05/09 11:56:55;;;;;;;8.85;2.55;;;20.20;41.50;;;;;;5092332;28;20105;-68
2022/05/09 11:59:26;;;;;;;14.02;2.45;;;20.20;41.80;;;;;;5091884;28;20092;-68
2022/05/09 12:02:05;;;;;;;10.90;2.10;;;20.30;41.20;;;;;;5091763;28;20044;-68
2022/05/09 12:04:39;;;;;;;4.93;1.73;;;20.40;41.30;;;;;;5092033;28;20036;-68
2022/05/09 12:07:23;;;;;;;5.53;1.60;;;20.50;40.10;;;;;;5091839;28;20048;-68
2022/05/09 12:09:57;;;;;;;14.38;2.47;;;20.60;39.60;;;;;;5090761;28;20097;-68
2022/05/09 12:12:40;;;;;;;9.45;2.58;;;20.70;40.10;;;;;;5091678;28;20492;-69
2022/05/09 12:15:26;;;;;;;6.95;1.92;;;20.80;39.90;;;;;;5090697;28;20040;-68
2022/05/09 12:17:57;;;;;;;7.53;2.35;;;20.90;39.60;;;;;;5087394;28;20048;-68
2022/05/09 12:20:29;;;;;;;12.48;2.17;;;20.90;41.00;;;;;;5091537;28;20489;-68
2022/05/09 12:22:56;;;;;;;9.70;2.83;;;20.90;40.70;;;;;;5091456;28;20055;-68
2022/05/09 12:25:34;;;;;;;8.73;2.42;;;21.00;40.60;;;;;;5091438;28;20052;-68
2022/05/09 12:28:19;;;;;;;8.40;2.17;;;20.80;38.70;;;;;;5091447;28;20095;-68
2022/05/09 12:30:45;;;;;;;11.93;2.60;;;20.90;38.60;;;;;;5091531;28;20052;-69
2022/05/09 12:33:41;;;;;;;8.65;2.58;;;20.70;39.00;;;;;;5091102;28;20066;-69
2022/05/09 12:36:21;;;;;;;9.07;2.55;;;20.70;39.10;;;;;;5091181;28;20044;-68
2022/05/09 12:38:51;;;;;;;8.15;1.92;;;20.80;39.70;;;;;;5091299;28;20048;-68
2022/05/09 12:41:21;;;;;;;7.15;2.05;;;21.00;39.40;;;;;;5091267;28;20040;-68
2022/05/09 12:44:05;;;;;;;15.53;4.53;;;21.10;39.10;;;;;;5089948;28;20378;-68
2022/05/09 12:46:56;;;;;;;11.65;2.15;;;21.30;38.70;;;;;;5090923;28;20051;-68
2022/05/09 12:49:33;;;;;;;13.60;2.75;;;21.30;38.00;;;;;;5091060;28;20052;-68
2022/05/09 12:51:59;;;;;;;5.60;1.38;;;21.30;38.40;;;;;;5089401;28;20155;-67
2022/05/09 12:54:28;;;;;;;12.10;1.75;;;21.40;38.60;;;;;;5091026;28;20481;-67
2022/05/09 12:56:59;;;;;;;9.27;2.72;;;21.50;39.00;;;;;;5090826;28;20048;-68
2022/05/09 12:59:27;;;;;;;10.98;2.08;;;21.60;38.30;;;;;;5090863;28;20044;-67
2022/05/09 13:01:59;;;;;;;10.43;2.03;;;21.80;38.10;;;;;;5090896;28;20633;-67
2022/05/09 13:04:30;;;;;;;6.47;2.30;;;22.00;38.00;;;;;;5090647;28;20040;-67
2022/05/09 13:07:07;;;;;;;;;;;22.10;37.50;;;;;;5091278;28;20824;-68
2022/05/09 13:09:44;;;;;;;6.53;2.00;;;22.20;38.00;;;;;;5090249;28;19974;-68
2022/05/09 13:12:22;;;;;;;9.35;2.60;;;22.40;37.90;;;;;;5090666;28;20127;-67
2022/05/09 13:15:01;;;;;;;9.40;2.20;;;22.50;37.20;;;;;;5089556;28;20083;-67